Terminal Aerodrome Forecast
Issued by NWS

Home | Current Version | Previous Version | Text Only | Print | Product List | Glossary On
Versions: 1 2 3 4 5 6 7 8 9 10 11 12 13
000
FTUS42 KMLB 250911 AAA
TAFSFB
TAF AMD
KSFB 250911Z 2509/2606 10004KT P6SM SCT060 BKN090
     FM251500 09011KT P6SM SCT040
     FM260100 08003KT P6SM SKC=

USA.gov is the U.S. government's official web portal to all federal, state and local government web resources and services.